Time;durP1;ratioP1;P1;durP2;ratioP2;P2;SDS_P1;SDS_P2;PMS_P1;PMS_P2;Temp;Humidity;BMP_temperature;BMP_pressure;BME280_temperature;BME280_humidity;BME280_pressure;Samples;Min_cycle;Max_cycle;Signal;HPM_P1;HPM_P2
2021/08/18 00:01:23;;;;;;;17.63;12.93;;;19.50;99.90;;;;;;4997988;28;20052;-82
2021/08/18 00:03:49;;;;;;;17.95;14.02;;;19.60;99.90;;;;;;4998761;28;20027;-82
2021/08/18 00:06:15;;;;;;;17.48;13.18;;;19.50;99.90;;;;;;4996549;28;20125;-82
2021/08/18 00:08:41;;;;;;;16.65;12.20;;;19.40;99.90;;;;;;4996110;28;20038;-82
2021/08/18 00:11:07;;;;;;;17.67;12.43;;;19.20;99.90;;;;;;4998815;28;20053;-82
2021/08/18 00:13:34;;;;;;;18.73;12.70;;;19.20;99.90;;;;;;4998301;28;20030;-82
2021/08/18 00:15:59;;;;;;;16.95;12.52;;;19.40;99.90;;;;;;4997841;28;20375;-82
2021/08/18 00:18:25;;;;;;;18.95;13.07;;;19.50;99.90;;;;;;4998330;28;20108;-83
2021/08/18 00:20:51;;;;;;;16.00;12.48;;;19.40;99.90;;;;;;4994392;28;20030;-82
2021/08/18 00:23:17;;;;;;;14.70;11.75;;;19.10;99.90;;;;;;4998754;28;20391;-82
2021/08/18 00:25:43;;;;;;;19.48;12.38;;;19.20;99.90;;;;;;4998007;28;20026;-82
2021/08/18 00:28:08;;;;;;;16.42;12.45;;;19.20;99.90;;;;;;4998105;28;20042;-82
2021/08/18 00:30:34;;;;;;;16.50;11.07;;;19.10;99.90;;;;;;4997771;28;20026;-82
2021/08/18 00:33:01;;;;;;;18.70;12.43;;;19.10;99.90;;;;;;4994235;28;20112;-82
2021/08/18 00:35:26;;;;;;;15.52;11.23;;;19.10;99.90;;;;;;4997397;28;20100;-82
2021/08/18 00:37:53;;;;;;;16.30;11.82;;;19.10;99.90;;;;;;4998393;28;20382;-82
2021/08/18 00:40:20;;;;;;;17.50;11.57;;;19.00;99.90;;;;;;4997972;28;20484;-82
2021/08/18 00:42:46;;;;;;;14.82;11.48;;;19.00;99.90;;;;;;4997305;28;20116;-82
2021/08/18 00:45:17;;;;;;;19.08;12.02;;;19.10;99.90;;;;;;4995415;28;20152;-82
2021/08/18 00:47:57;;;;;;;16.33;11.65;;;19.00;99.90;;;;;;4994804;28;20038;-82
2021/08/18 00:50:26;;;;;;;14.18;11.52;;;18.70;99.90;;;;;;5005841;28;20124;-82
2021/08/18 00:52:53;;;;;;;14.38;11.63;;;18.70;99.90;;;;;;4997676;28;20038;-82
2021/08/18 00:55:20;;;;;;;14.40;11.60;;;18.70;99.90;;;;;;4997271;28;20101;-82
2021/08/18 00:57:46;;;;;;;16.73;11.60;;;18.50;99.90;;;;;;4997356;28;20498;-82
2021/08/18 01:00:13;;;;;;;15.00;11.30;;;18.50;99.90;;;;;;4995202;28;20024;-82
2021/08/18 01:02:43;;;;;;;17.27;11.73;;;18.50;99.90;;;;;;4994834;28;20034;-82
2021/08/18 01:05:16;;;;;;;13.93;11.07;;;18.50;99.90;;;;;;4996247;28;20050;-82
2021/08/18 01:07:42;;;;;;;16.95;11.45;;;18.50;99.90;;;;;;4997514;28;20034;-82
2021/08/18 01:10:11;;;;;;;16.40;11.27;;;18.40;99.90;;;;;;4997375;28;20026;-82
2021/08/18 01:12:39;;;;;;;16.27;11.38;;;18.40;99.90;;;;;;4997269;28;20068;-82
2021/08/18 01:15:10;;;;;;;14.73;10.50;;;18.20;99.90;;;;;;4993704;28;20031;-82
2021/08/18 01:17:44;;;;;;;16.15;11.25;;;18.20;99.90;;;;;;4995028;28;20109;-82
2021/08/18 01:20:14;;;;;;;14.98;10.93;;;18.20;99.90;;;;;;4996247;28;20050;-82
2021/08/18 01:22:40;;;;;;;13.88;10.55;;;18.20;99.90;;;;;;4997372;28;20105;-82
2021/08/18 01:25:07;;;;;;;14.20;11.00;;;18.20;99.90;;;;;;4997151;28;20034;-82
2021/08/18 01:27:35;;;;;;;16.10;10.63;;;18.30;99.90;;;;;;4996794;28;20037;-82
2021/08/18 01:30:00;;;;;;;16.20;10.77;;;18.30;99.90;;;;;;4993179;28;20520;-82
2021/08/18 01:32:26;;;;;;;16.27;10.73;;;18.30;99.90;;;;;;4996340;28;20022;-81
2021/08/18 01:34:52;;;;;;;14.73;10.55;;;18.30;99.90;;;;;;4996898;28;20050;-82
2021/08/18 01:37:17;;;;;;;14.70;10.75;;;18.20;99.90;;;;;;4997058;28;20026;-82
2021/08/18 01:39:43;;;;;;;16.10;10.82;;;18.20;99.90;;;;;;4996765;28;20029;-82
2021/08/18 01:42:09;;;;;;;15.18;10.95;;;18.20;99.90;;;;;;4994081;28;20022;-82
2021/08/18 01:44:34;;;;;;;15.05;10.77;;;18.20;99.90;;;;;;4976900;28;20400;-82
2021/08/18 01:47:00;;;;;;;15.20;10.98;;;18.10;99.90;;;;;;4997022;28;20034;-82
2021/08/18 01:49:28;;;;;;;17.10;11.40;;;18.00;99.90;;;;;;4996577;28;20023;-82
2021/08/18 01:51:54;;;;;;;17.95;11.25;;;17.90;99.90;;;;;;4996492;28;20439;-82
2021/08/18 01:54:20;;;;;;;14.50;10.77;;;17.70;99.90;;;;;;4995165;28;20025;-82
2021/08/18 01:56:46;;;;;;;15.48;11.35;;;17.80;99.90;;;;;;4993022;28;20459;-82
2021/08/18 01:59:11;;;;;;;15.15;10.52;;;17.90;99.90;;;;;;4996754;28;20376;-81
2021/08/18 02:01:37;;;;;;;16.50;11.25;;;17.90;99.90;;;;;;4996488;28;20100;-82
2021/08/18 02:04:03;;;;;;;15.98;10.68;;;18.00;99.90;;;;;;4995944;28;20061;-82
2021/08/18 02:06:31;;;;;;;12.57;10.20;;;17.90;99.90;;;;;;4996777;28;20026;-82
2021/08/18 02:08:56;;;;;;;15.50;10.98;;;18.00;99.90;;;;;;4992079;28;20046;-82
2021/08/18 02:11:22;;;;;;;16.98;11.00;;;18.00;99.90;;;;;;4996662;28;20055;-82
2021/08/18 02:13:48;;;;;;;15.48;10.75;;;18.00;99.90;;;;;;4978341;28;20050;-82
2021/08/18 02:16:14;;;;;;;16.38;10.60;;;18.00;99.90;;;;;;4996535;28;20057;-82
2021/08/18 02:18:39;;;;;;;14.38;9.75;;;17.90;99.90;;;;;;4996518;28;20474;-82
2021/08/18 02:21:05;;;;;;;14.95;10.98;;;18.00;99.90;;;;;;4992928;28;20030;-82
2021/08/18 02:23:30;;;;;;;14.43;10.13;;;18.00;99.90;;;;;;4995215;28;20093;-82
2021/08/18 02:25:56;;;;;;;15.52;10.43;;;17.90;99.90;;;;;;4996263;28;20026;-82
2021/08/18 02:28:22;;;;;;;14.52;10.90;;;17.90;99.90;;;;;;4995591;28;20121;-82
2021/08/18 02:30:48;;;;;;;14.60;9.85;;;17.90;99.90;;;;;;4996258;28;20033;-82
2021/08/18 02:33:13;;;;;;;15.35;10.48;;;17.80;99.90;;;;;;4993999;28;20507;-82
2021/08/18 02:35:39;;;;;;;14.77;10.05;;;17.80;99.90;;;;;;4993374;28;20050;-82
2021/08/18 02:38:06;;;;;;;13.45;9.85;;;17.80;99.90;;;;;;4996244;28;20113;-82
2021/08/18 02:40:32;;;;;;;16.92;10.82;;;17.70;99.90;;;;;;4995726;28;20145;-82
2021/08/18 02:42:59;;;;;;;14.90;10.63;;;17.50;99.90;;;;;;4995877;28;20041;-82
2021/08/18 02:45:26;;;;;;;16.65;10.82;;;17.70;99.90;;;;;;4995480;28;20025;-82
2021/08/18 02:47:52;;;;;;;14.48;11.13;;;17.70;99.90;;;;;;4992017;28;20177;-82
2021/08/18 02:50:21;;;;;;;16.77;10.60;;;17.70;99.90;;;;;;4996303;28;20026;-81
2021/08/18 02:52:46;;;;;;;15.40;10.85;;;17.60;99.90;;;;;;4995428;28;20038;-81
2021/08/18 02:55:12;;;;;;;14.13;10.48;;;17.50;99.90;;;;;;4995073;28;20219;-82
2021/08/18 02:57:38;;;;;;;15.75;10.02;;;17.40;99.90;;;;;;4995899;28;20510;-82
2021/08/18 03:00:05;;;;;;;17.85;11.18;;;17.30;99.90;;;;;;4992210;28;20384;-82
2021/08/18 03:02:31;;;;;;;16.23;11.25;;;17.40;99.90;;;;;;4994670;28;20030;-81
2021/08/18 03:04:57;;;;;;;13.23;10.25;;;17.50;99.90;;;;;;4996287;28;20027;-82
2021/08/18 03:07:22;;;;;;;15.60;10.82;;;17.40;99.90;;;;;;4999002;28;20423;-82
2021/08/18 03:09:48;;;;;;;17.13;10.85;;;17.40;99.90;;;;;;4998825;28;20477;-81
2021/08/18 03:12:14;;;;;;;15.50;10.43;;;17.50;99.90;;;;;;4997909;28;20030;-81
2021/08/18 03:14:39;;;;;;;13.55;9.80;;;17.50;99.90;;;;;;4996898;28;20407;-81
2021/08/18 03:17:05;;;;;;;16.33;10.85;;;17.40;99.90;;;;;;4998080;28;20558;-82
2021/08/18 03:19:31;;;;;;;13.18;10.15;;;17.50;99.90;;;;;;4999104;28;20033;-82
2021/08/18 03:21:57;;;;;;;13.38;10.18;;;17.50;99.90;;;;;;4981904;28;20037;-82
2021/08/18 03:24:22;;;;;;;15.10;10.52;;;17.30;99.90;;;;;;4998072;28;20026;-82
2021/08/18 03:26:48;;;;;;;17.75;10.43;;;17.30;99.90;;;;;;4995770;28;20551;-82
2021/08/18 03:29:14;;;;;;;16.55;10.23;;;17.30;99.90;;;;;;4999900;28;20066;-82
2021/08/18 03:31:39;;;;;;;15.10;10.55;;;17.40;99.90;;;;;;4999109;28;20058;-82
2021/08/18 03:34:05;;;;;;;14.80;10.20;;;17.40;99.90;;;;;;4998709;28;20042;-82
2021/08/18 03:36:31;;;;;;;17.20;11.07;;;17.40;99.90;;;;;;4999310;28;20034;-82
2021/08/18 03:38:57;;;;;;;15.50;10.23;;;17.30;99.90;;;;;;4994119;28;20403;-82
2021/08/18 03:41:23;;;;;;;13.25;9.77;;;17.30;99.90;;;;;;4999368;28;20041;-82
2021/08/18 03:43:48;;;;;;;13.95;10.43;;;17.20;99.90;;;;;;4998932;28;20034;-81
2021/08/18 03:46:14;;;;;;;15.73;10.30;;;17.30;99.90;;;;;;4998774;28;20030;-82
2021/08/18 03:48:40;;;;;;;13.80;9.95;;;17.20;99.90;;;;;;4998688;28;20072;-82
2021/08/18 03:51:05;;;;;;;13.65;10.07;;;17.20;99.90;;;;;;4996250;28;20026;-81
2021/08/18 03:53:31;;;;;;;16.67;10.32;;;17.20;99.90;;;;;;4979718;28;20034;-81
2021/08/18 03:55:57;;;;;;;15.55;10.35;;;17.00;99.90;;;;;;4998686;28;20559;-81
2021/08/18 03:58:22;;;;;;;14.82;9.77;;;17.10;99.90;;;;;;4998700;28;20052;-82
2021/08/18 04:00:48;;;;;;;15.15;10.07;;;17.10;99.90;;;;;;4998838;28;20126;-82
2021/08/18 04:03:14;;;;;;;14.98;10.50;;;17.10;99.90;;;;;;4996574;28;20031;-82
2021/08/18 04:05:39;;;;;;;14.38;10.20;;;17.20;99.90;;;;;;4996255;28;20026;-82
2021/08/18 04:08:07;;;;;;;15.90;10.15;;;17.20;99.90;;;;;;4981079;28;20046;-82
2021/08/18 04:10:34;;;;;;;12.70;9.20;;;17.20;99.90;;;;;;4998097;28;20050;-82
2021/08/18 04:13:00;;;;;;;13.52;9.70;;;17.10;99.90;;;;;;4998632;28;20037;-81
2021/08/18 04:15:37;;;;;;;15.68;9.82;;;17.10;99.90;;;;;;4998504;28;20108;-82
2021/08/18 04:18:04;;;;;;;15.85;9.65;;;17.10;99.90;;;;;;4979877;28;20033;-81
2021/08/18 04:20:29;;;;;;;13.98;9.90;;;17.00;99.90;;;;;;4997401;28;20031;-82
2021/08/18 04:22:55;;;;;;;12.93;9.43;;;17.10;99.90;;;;;;4997878;28;20125;-82
2021/08/18 04:25:21;;;;;;;15.48;9.75;;;17.00;99.90;;;;;;4998199;28;20045;-81
2021/08/18 04:27:47;;;;;;;13.55;10.13;;;17.10;99.90;;;;;;4980634;28;20045;-81
2021/08/18 04:30:14;;;;;;;15.48;10.00;;;17.10;99.90;;;;;;4995873;28;20080;-82
2021/08/18 04:32:40;;;;;;;14.13;9.55;;;17.10;99.90;;;;;;4995541;28;20106;-81
2021/08/18 04:35:07;;;;;;;14.55;10.13;;;17.10;99.90;;;;;;4996531;28;20134;-82
2021/08/18 04:37:35;;;;;;;15.95;9.77;;;17.10;99.90;;;;;;4996919;28;20038;-82
2021/08/18 04:40:05;;;;;;;12.23;8.57;;;17.00;99.90;;;;;;4997224;28;20030;-83
2021/08/18 04:42:35;;;;;;;13.88;9.65;;;17.00;99.90;;;;;;4998256;28;20502;-81
2021/08/18 04:45:05;;;;;;;14.15;8.75;;;16.90;99.90;;;;;;4994106;28;20034;-82
2021/08/18 04:47:31;;;;;;;13.93;9.18;;;16.80;99.90;;;;;;4996342;28;20495;-82
2021/08/18 04:49:57;;;;;;;13.35;8.98;;;16.80;99.90;;;;;;4998455;28;20025;-81
2021/08/18 04:52:22;;;;;;;13.07;9.10;;;16.80;99.90;;;;;;4997044;28;20026;-81
2021/08/18 04:54:48;;;;;;;13.73;9.80;;;16.70;99.90;;;;;;4997361;28;20029;-81
2021/08/18 04:57:13;;;;;;;11.98;9.30;;;16.80;99.90;;;;;;4996110;28;20510;-82
2021/08/18 04:59:39;;;;;;;13.27;9.00;;;16.90;99.90;;;;;;4995286;28;20023;-82
2021/08/18 05:02:04;;;;;;;13.95;9.05;;;16.80;99.90;;;;;;4997590;28;20495;-82
2021/08/18 05:04:30;;;;;;;13.07;8.63;;;16.90;99.90;;;;;;4997224;28;20529;-82
2021/08/18 05:06:56;;;;;;;13.13;8.95;;;16.90;99.90;;;;;;4997056;28;20038;-81
2021/08/18 05:09:21;;;;;;;13.07;9.50;;;16.90;99.90;;;;;;4996240;28;20029;-82
2021/08/18 05:11:47;;;;;;;12.00;9.00;;;16.90;99.90;;;;;;4993785;28;20403;-82
2021/08/18 05:14:12;;;;;;;12.48;8.48;;;17.00;99.90;;;;;;4997812;28;20034;-82
2021/08/18 05:16:38;;;;;;;11.43;8.57;;;17.10;99.90;;;;;;4997473;28;20030;-82
2021/08/18 05:19:04;;;;;;;11.48;8.13;;;17.10;99.90;;;;;;4997335;28;20037;-82
2021/08/18 05:21:29;;;;;;;12.18;9.15;;;17.00;99.90;;;;;;4996500;28;20483;-82
2021/08/18 05:23:55;;;;;;;12.18;9.07;;;17.10;99.90;;;;;;4992599;28;20018;-81
2021/08/18 05:26:20;;;;;;;16.83;9.05;;;17.10;99.90;;;;;;4997414;28;20030;-81
2021/08/18 05:28:46;;;;;;;13.68;9.05;;;17.10;99.90;;;;;;4996019;28;20050;-82
2021/08/18 05:31:12;;;;;;;11.57;8.27;;;17.20;99.90;;;;;;4996891;28;20092;-81
2021/08/18 05:33:37;;;;;;;10.77;7.72;;;17.20;99.90;;;;;;4996605;28;20462;-82
2021/08/18 05:36:04;;;;;;;12.18;8.70;;;17.30;99.90;;;;;;4992634;28;20097;-82
2021/08/18 05:38:30;;;;;;;12.18;8.57;;;17.30;99.90;;;;;;4996180;28;20030;-81
2021/08/18 05:40:55;;;;;;;11.70;8.68;;;17.20;99.90;;;;;;4996972;28;20522;-83
2021/08/18 05:43:21;;;;;;;14.23;8.52;;;17.20;99.90;;;;;;4996537;28;20553;-83
2021/08/18 05:45:47;;;;;;;11.55;8.40;;;17.20;99.90;;;;;;4996578;28;20096;-83
2021/08/18 05:48:12;;;;;;;12.75;8.25;;;17.20;99.90;;;;;;4994471;28;20101;-83
2021/08/18 05:50:38;;;;;;;12.45;8.25;;;17.20;99.90;;;;;;4993980;28;20472;-83
2021/08/18 05:53:05;;;;;;;11.45;8.38;;;17.20;99.90;;;;;;4997145;28;20042;-81
2021/08/18 05:55:30;;;;;;;12.25;8.32;;;17.20;99.90;;;;;;4995940;28;20031;-82
2021/08/18 05:57:56;;;;;;;10.90;7.68;;;17.30;99.90;;;;;;4996610;28;20026;-82
2021/08/18 06:00:22;;;;;;;13.43;7.88;;;17.40;99.90;;;;;;4977788;28;20042;-82
2021/08/18 06:02:47;;;;;;;10.98;8.35;;;17.40;99.90;;;;;;4992865;28;20672;-83
2021/08/18 06:05:13;;;;;;;11.88;9.00;;;17.50;99.90;;;;;;4997060;28;20041;-82
2021/08/18 06:07:38;;;;;;;10.75;7.88;;;17.50;99.90;;;;;;4996031;28;20430;-82
2021/08/18 06:10:05;;;;;;;15.60;8.13;;;17.40;99.90;;;;;;4996413;28;20117;-82
2021/08/18 06:12:30;;;;;;;12.70;8.00;;;17.40;99.90;;;;;;4996408;28;20544;-82
2021/08/18 06:14:56;;;;;;;10.85;8.15;;;17.30;99.90;;;;;;4991618;28;20030;-81
2021/08/18 06:17:21;;;;;;;14.35;8.07;;;17.30;99.90;;;;;;4996656;28;20479;-82
2021/08/18 06:19:47;;;;;;;13.63;8.50;;;17.40;99.90;;;;;;4995868;28;20368;-82
2021/08/18 06:22:13;;;;;;;15.07;8.00;;;17.40;99.90;;;;;;4995778;28;20038;-82
2021/08/18 06:24:42;;;;;;;13.27;8.73;;;17.50;99.90;;;;;;4996195;28;20029;-82
2021/08/18 06:27:10;;;;;;;11.90;8.60;;;17.50;99.90;;;;;;4993330;28;20050;-82
2021/08/18 06:29:36;;;;;;;10.45;7.82;;;17.50;99.90;;;;;;4994145;28;20109;-81
2021/08/18 06:32:03;;;;;;;10.75;8.27;;;17.40;99.90;;;;;;4995905;28;20166;-82
2021/08/18 06:34:29;;;;;;;10.48;7.72;;;17.50;99.90;;;;;;4995195;28;20042;-82
2021/08/18 06:36:54;;;;;;;11.85;7.85;;;17.40;99.90;;;;;;4996085;28;20109;-81
2021/08/18 06:39:20;;;;;;;13.75;8.13;;;17.50;99.90;;;;;;4994873;28;20037;-81
2021/08/18 06:41:46;;;;;;;11.05;7.75;;;17.50;99.90;;;;;;4991790;28;20038;-81
2021/08/18 06:44:11;;;;;;;11.88;7.75;;;17.60;99.90;;;;;;4996079;28;20029;-82
2021/08/18 06:46:37;;;;;;;12.60;7.97;;;17.70;99.90;;;;;;4995781;28;20034;-81
2021/08/18 06:49:03;;;;;;;12.40;7.90;;;17.70;99.90;;;;;;4995303;28;20027;-81
2021/08/18 06:51:28;;;;;;;10.25;7.88;;;17.90;99.90;;;;;;4995796;28;20029;-81
2021/08/18 06:53:54;;;;;;;14.18;8.77;;;17.90;99.90;;;;;;4990604;28;20030;-81
2021/08/18 06:56:20;;;;;;;11.65;7.65;;;18.00;99.90;;;;;;4996351;28;20027;-81
2021/08/18 06:58:45;;;;;;;10.70;7.38;;;18.20;99.90;;;;;;4995968;28;20035;-81
2021/08/18 07:01:11;;;;;;;11.93;7.97;;;18.30;99.90;;;;;;4995152;28;20038;-82
2021/08/18 07:03:36;;;;;;;11.20;7.57;;;18.30;99.90;;;;;;4977054;28;20065;-82
2021/08/18 07:06:02;;;;;;;11.63;8.30;;;18.30;99.90;;;;;;4992262;28;20030;-82
2021/08/18 07:08:28;;;;;;;11.55;7.45;;;18.40;99.90;;;;;;4995364;28;20041;-81
2021/08/18 07:10:53;;;;;;;10.20;8.07;;;18.30;99.90;;;;;;4995648;28;20065;-82
2021/08/18 07:13:20;;;;;;;13.23;8.07;;;18.30;99.90;;;;;;4995092;28;20451;-81
2021/08/18 07:15:46;;;;;;;12.25;7.50;;;18.30;99.90;;;;;;4995454;28;20872;-82
2021/08/18 07:18:12;;;;;;;11.10;6.95;;;18.20;99.90;;;;;;4992580;28;20027;-81
2021/08/18 07:20:38;;;;;;;11.82;7.97;;;18.30;99.90;;;;;;4992816;28;20383;-81
2021/08/18 07:23:04;;;;;;;11.77;7.65;;;18.30;99.90;;;;;;4995872;28;20034;-81
2021/08/18 07:25:30;;;;;;;10.80;7.78;;;18.40;99.90;;;;;;4995150;28;20499;-81
2021/08/18 07:27:55;;;;;;;10.13;7.28;;;18.50;99.90;;;;;;4995106;28;20120;-81
2021/08/18 07:30:21;;;;;;;11.48;7.22;;;18.70;99.90;;;;;;4993241;28;20054;-81
2021/08/18 07:32:47;;;;;;;9.40;6.93;;;19.00;99.90;;;;;;4991920;28;20040;-82
2021/08/18 07:35:13;;;;;;;9.90;7.13;;;19.10;99.90;;;;;;4995839;28;20053;-82
2021/08/18 07:37:39;;;;;;;9.52;7.22;;;19.10;99.90;;;;;;4995066;28;20030;-81
2021/08/18 07:40:05;;;;;;;10.30;7.22;;;19.00;99.90;;;;;;4995279;28;20077;-82
2021/08/18 07:42:31;;;;;;;9.65;7.03;;;19.20;99.90;;;;;;4995664;28;20053;-82
2021/08/18 07:44:57;;;;;;;8.30;7.18;;;19.10;99.90;;;;;;4990776;28;20128;-82
2021/08/18 07:47:23;;;;;;;12.43;7.45;;;19.10;99.90;;;;;;4995476;28;20034;-82
2021/08/18 07:49:49;;;;;;;9.63;6.90;;;19.10;99.90;;;;;;4977660;28;20037;-82
2021/08/18 07:52:14;;;;;;;10.55;6.72;;;19.30;99.90;;;;;;4995207;28;20026;-82
2021/08/18 07:54:40;;;;;;;11.70;6.70;;;19.40;99.90;;;;;;4998672;28;20092;-82
2021/08/18 07:57:06;;;;;;;9.50;7.20;;;19.50;99.90;;;;;;4995655;28;20507;-82
2021/08/18 07:59:31;;;;;;;10.98;6.88;;;19.60;99.90;;;;;;4997630;28;20022;-82
2021/08/18 08:01:59;;;;;;;12.32;7.47;;;19.80;99.90;;;;;;4997490;28;20058;-81
2021/08/18 08:04:25;;;;;;;14.45;7.20;;;19.70;99.90;;;;;;4998430;28;20064;-84
2021/08/18 08:06:52;;;;;;;9.57;6.60;;;19.70;99.90;;;;;;4998329;28;20494;-82
2021/08/18 08:09:18;;;;;;;12.75;7.55;;;19.90;99.90;;;;;;4997134;28;20050;-82
2021/08/18 08:11:44;;;;;;;11.63;6.88;;;19.90;99.90;;;;;;4995605;28;20062;-82
2021/08/18 08:14:09;;;;;;;9.77;6.50;;;20.10;99.90;;;;;;4998542;28;20518;-80
2021/08/18 08:16:35;;;;;;;10.05;6.82;;;20.20;99.90;;;;;;4980747;28;20121;-82
2021/08/18 08:19:00;;;;;;;8.63;7.10;;;20.40;99.90;;;;;;4998029;28;20034;-82
2021/08/18 08:21:27;;;;;;;8.88;6.65;;;20.30;99.90;;;;;;4980892;28;20380;-82
2021/08/18 08:23:52;;;;;;;11.15;6.03;;;20.40;99.90;;;;;;4993695;28;20065;-82
2021/08/18 08:26:18;;;;;;;11.88;6.78;;;20.20;99.90;;;;;;4998707;28;20030;-82
2021/08/18 08:28:44;;;;;;;9.68;6.57;;;20.20;99.90;;;;;;4997301;28;20121;-82
2021/08/18 08:31:09;;;;;;;7.50;6.15;;;20.20;99.90;;;;;;4997882;28;20076;-82
2021/08/18 08:33:35;;;;;;;8.85;6.80;;;20.60;99.90;;;;;;4998731;28;20042;-82
2021/08/18 08:36:01;;;;;;;8.13;6.00;;;20.70;99.90;;;;;;4994005;28;20042;-82
2021/08/18 08:38:26;;;;;;;6.60;5.43;;;20.60;99.90;;;;;;4997524;28;20054;-82
2021/08/18 08:40:52;;;;;;;8.80;5.55;;;21.10;99.90;;;;;;4998188;28;20168;-82
2021/08/18 08:43:19;;;;;;;10.75;6.20;;;21.10;99.90;;;;;;4997232;28;20502;-82
2021/08/18 08:45:48;;;;;;;8.13;5.72;;;21.10;99.90;;;;;;4997671;28;20025;-82
2021/08/18 08:48:19;;;;;;;9.65;5.75;;;21.10;99.90;;;;;;4996070;28;20042;-81
2021/08/18 08:50:46;;;;;;;7.25;5.40;;;21.00;99.90;;;;;;4994532;28;20026;-82
2021/08/18 08:53:12;;;;;;;8.35;6.05;;;21.40;99.90;;;;;;4997950;28;20116;-82
2021/08/18 08:55:39;;;;;;;10.23;5.60;;;21.30;99.90;;;;;;4997253;28;20034;-82
2021/08/18 08:58:05;;;;;;;7.70;5.13;;;21.70;99.90;;;;;;4997270;28;20053;-82
2021/08/18 09:00:30;;;;;;;8.75;5.30;;;21.50;99.90;;;;;;4979747;28;20033;-82
2021/08/18 09:03:08;;;;;;;6.72;5.35;;;21.30;99.90;;;;;;4993275;28;20113;-82
2021/08/18 09:05:34;;;;;;;7.65;5.40;;;21.50;99.90;;;;;;5006641;28;20088;-82
2021/08/18 09:08:00;;;;;;;8.60;4.80;;;21.50;99.90;;;;;;4997539;28;20034;-82
2021/08/18 09:10:26;;;;;;;8.93;5.18;;;21.60;99.90;;;;;;4992922;28;20035;-82
2021/08/18 09:13:07;;;;;;;7.35;4.70;;;21.60;99.90;;;;;;4989501;28;20488;-82
2021/08/18 09:15:32;;;;;;;5.72;4.70;;;21.40;99.90;;;;;;4979567;28;20057;-82
2021/08/18 09:17:58;;;;;;;7.07;4.80;;;21.50;99.90;;;;;;4992675;28;20069;-82
2021/08/18 09:20:28;;;;;;;6.97;4.75;;;21.60;99.90;;;;;;4997164;28;20440;-82
2021/08/18 09:22:57;;;;;;;5.72;4.70;;;21.90;99.90;;;;;;4997146;28;20117;-82
2021/08/18 09:25:27;;;;;;;7.28;5.10;;;22.10;99.90;;;;;;4996968;28;20555;-82
2021/08/18 09:28:14;;;;;;;8.23;5.03;;;22.00;99.90;;;;;;4996333;28;20049;-82
2021/08/18 09:30:42;;;;;;;8.48;5.18;;;22.10;99.90;;;;;;4996257;28;20041;-82
2021/08/18 09:33:16;;;;;;;6.28;4.80;;;22.50;99.90;;;;;;4976062;28;20026;-82
2021/08/18 09:35:44;;;;;;;7.57;4.95;;;23.30;99.90;;;;;;4993775;28;20077;-82
2021/08/18 09:38:11;;;;;;;9.35;5.03;;;23.00;99.90;;;;;;4996867;28;20403;-82
2021/08/18 09:40:38;;;;;;;7.45;5.35;;;22.40;99.90;;;;;;4996406;28;20106;-83
2021/08/18 09:43:25;;;;;;;7.40;5.00;;;22.40;99.90;;;;;;4995917;28;20030;-83
2021/08/18 09:46:03;;;;;;;5.35;4.28;;;22.50;99.90;;;;;;4996663;28;20125;-83
2021/08/18 09:48:31;;;;;;;10.98;5.28;;;23.30;99.90;;;;;;4996246;28;20413;-83
2021/08/18 09:51:03;;;;;;;8.50;5.20;;;23.60;99.90;;;;;;4991912;28;20032;-83
2021/08/18 09:53:34;;;;;;;8.30;5.28;;;23.70;99.90;;;;;;4995338;28;20468;-83
2021/08/18 09:56:01;;;;;;;5.82;4.07;;;23.90;99.90;;;;;;4995570;28;20097;-83
2021/08/18 09:58:37;;;;;;;5.75;4.40;;;24.00;99.90;;;;;;4978802;28;20041;-83
2021/08/18 10:01:08;;;;;;;7.10;4.65;;;24.40;99.90;;;;;;4996125;28;20053;-82
2021/08/18 10:03:34;;;;;;;6.28;4.55;;;24.10;99.90;;;;;;4996184;28;20041;-82
2021/08/18 10:06:00;;;;;;;6.78;4.80;;;23.50;99.90;;;;;;4992231;28;20134;-81
2021/08/18 10:08:27;;;;;;;8.25;4.97;;;23.10;99.90;;;;;;4996477;28;20529;-86
2021/08/18 10:10:54;;;;;;;6.10;4.10;;;23.20;99.90;;;;;;5003186;28;20116;-86
2021/08/18 10:13:21;;;;;;;6.47;4.85;;;23.10;99.90;;;;;;5000412;28;20518;-86
2021/08/18 10:15:47;;;;;;;7.57;4.05;;;23.30;99.90;;;;;;4978012;28;20034;-86
2021/08/18 10:18:37;;;;;;;5.07;4.10;;;24.10;99.90;;;;;;4994154;28;20030;-85
2021/08/18 10:21:08;;;;;;;5.55;4.32;;;24.30;99.90;;;;;;4978335;28;20026;-85
2021/08/18 10:23:55;;;;;;;5.38;4.30;;;24.40;99.90;;;;;;4995037;28;20050;-83
2021/08/18 10:26:33;;;;;;;5.30;4.10;;;24.10;99.90;;;;;;5002828;28;20025;-84
2021/08/18 10:29:16;;;;;;;7.95;4.72;;;24.00;99.90;;;;;;4993946;28;20049;-85
2021/08/18 10:31:42;;;;;;;6.88;4.32;;;24.00;99.90;;;;;;4995472;28;20484;-83
2021/08/18 10:34:30;;;;;;;4.55;4.03;;;24.60;99.90;;;;;;4995468;28;20041;-84
2021/08/18 10:36:56;;;;;;;6.22;4.38;;;25.10;99.90;;;;;;4996444;28;20087;-83
2021/08/18 10:39:22;;;;;;;5.43;4.20;;;25.20;99.90;;;;;;4994324;28;20034;-83
2021/08/18 10:42:17;;;;;;;5.35;3.90;;;25.20;99.90;;;;;;4992251;28;20030;-83
2021/08/18 10:44:51;;;;;;;5.07;3.95;;;24.50;99.90;;;;;;5005788;28;20057;-83
2021/08/18 10:47:27;;;;;;;5.45;3.95;;;29.60;99.90;;;;;;4996014;28;20479;-86
2021/08/18 10:49:56;;;;;;;5.78;4.45;;;28.40;99.90;;;;;;4996077;28;20511;-83
2021/08/18 10:52:33;;;;;;;5.63;3.70;;;26.00;99.90;;;;;;4995648;28;20022;-83
2021/08/18 10:55:12;;;;;;;5.10;4.00;;;25.00;99.90;;;;;;4995129;28;20061;-83
2021/08/18 10:57:45;;;;;;;6.15;4.03;;;27.40;99.90;;;;;;4996108;28;20087;-87
2021/08/18 11:00:23;;;;;;;4.50;3.50;;;28.10;99.90;;;;;;4993705;28;20506;-85
2021/08/18 11:03:22;;;;;;;5.22;4.13;;;34.90;99.90;;;;;;4992437;28;20121;-82
2021/08/18 11:05:52;;;;;;;6.60;3.88;;;29.90;99.90;;;;;;5006200;28;20178;-82
2021/08/18 11:08:20;;;;;;;6.03;3.95;;;34.60;99.90;;;;;;4995587;28;20038;-82
2021/08/18 11:10:55;;;;;;;7.35;4.07;;;35.70;99.90;;;;;;4995514;28;20113;-81
2021/08/18 11:13:42;;;;;;;5.85;3.83;;;32.80;99.90;;;;;;4995759;28;20037;-81
2021/08/18 11:16:31;;;;;;;6.03;4.22;;;34.60;99.90;;;;;;4995069;28;20030;-81
2021/08/18 11:18:59;;;;;;;4.95;4.18;;;30.80;99.90;;;;;;4990179;28;20061;-81
2021/08/18 11:21:31;;;;;;;5.93;3.95;;;28.30;99.90;;;;;;4995448;28;20125;-80
2021/08/18 11:24:08;;;;;;;5.97;4.00;;;28.00;99.90;;;;;;4975384;28;20042;-81
2021/08/18 11:26:42;;;;;;;6.60;3.58;;;32.90;99.90;;;;;;5004835;28;20025;-81
2021/08/18 11:29:15;;;;;;;6.32;3.83;;;34.10;99.90;;;;;;4997884;28;20113;-81
2021/08/18 11:31:49;;;;;;;4.53;3.67;;;32.70;99.90;;;;;;4981130;28;20113;-81
2021/08/18 11:34:29;;;;;;;6.32;3.70;;;28.60;99.90;;;;;;4998869;28;20046;-82
2021/08/18 11:37:07;;;;;;;5.15;3.70;;;33.60;99.90;;;;;;4999179;28;20034;-82
2021/08/18 11:39:37;;;;;;;8.02;3.78;;;36.80;99.90;;;;;;4998643;28;20548;-81
2021/08/18 11:42:13;;;;;;;4.93;3.65;;;33.90;99.90;;;;;;4995447;28;20105;-82
2021/08/18 11:44:39;;;;;;;6.85;4.00;;;35.00;99.90;;;;;;4997106;28;20541;-81
2021/08/18 11:47:13;;;;;;;5.85;3.88;;;34.80;99.90;;;;;;4999367;28;20077;-82
2021/08/18 11:49:40;;;;;;;5.15;3.92;;;33.70;99.90;;;;;;4999056;28;20027;-82
2021/08/18 11:52:07;;;;;;;5.63;3.60;;;35.10;99.90;;;;;;4998178;28;20499;-81
2021/08/18 11:54:34;;;;;;;4.38;3.40;;;35.20;99.90;;;;;;4998484;28;20498;-81
2021/08/18 11:57:07;;;;;;;5.35;4.35;;;35.50;99.90;;;;;;4995074;28;20032;-82
2021/08/18 11:59:35;;;;;;;6.13;3.90;;;37.60;99.90;;;;;;4997373;28;20088;-82
2021/08/18 12:02:01;;;;;;;3.47;3.15;;;38.30;99.90;;;;;;4998893;28;20038;-81
2021/08/18 12:04:27;;;;;;;4.18;3.72;;;39.00;99.90;;;;;;4998381;28;20109;-81
2021/08/18 12:07:13;;;;;;;3.55;3.15;;;36.50;99.90;;;;;;4998226;28;20109;-82
2021/08/18 12:09:44;;;;;;;4.28;3.28;;;36.10;99.90;;;;;;4998373;28;20070;-82
2021/08/18 12:12:19;;;;;;;5.07;3.22;;;35.80;99.90;;;;;;4995842;28;20022;-82
2021/08/18 12:14:51;;;;;;;4.57;3.35;;;37.00;99.90;;;;;;4995465;28;20034;-82
2021/08/18 12:17:18;;;;;;;3.88;2.85;;;39.40;99.90;;;;;;4999222;28;20038;-82
2021/08/18 12:19:45;;;;;;;3.97;3.10;;;38.30;99.90;;;;;;4998205;28;20037;-82
2021/08/18 12:22:25;;;;;;;3.95;2.90;;;39.40;99.90;;;;;;4998188;28;20031;-82
2021/08/18 12:24:53;;;;;;;3.20;2.90;;;39.30;99.90;;;;;;4998707;28;20525;-82
2021/08/18 12:27:24;;;;;;;3.08;2.78;;;39.20;99.90;;;;;;4996759;28;20025;-82
2021/08/18 12:30:12;;;;;;;3.20;2.90;;;37.60;99.90;;;;;;4994230;28;20109;-82
2021/08/18 12:32:39;;;;;;;3.30;3.00;;;35.60;99.90;;;;;;5007589;28;20034;-82
2021/08/18 12:35:05;;;;;;;3.13;2.83;;;32.60;99.90;;;;;;4998581;28;20053;-82
2021/08/18 12:37:36;;;;;;;3.22;2.92;;;34.00;99.90;;;;;;4997885;28;20043;-82
2021/08/18 12:40:09;;;;;;;4.57;3.20;;;36.30;99.90;;;;;;4996957;28;20073;-82
2021/08/18 12:42:41;;;;;;;3.85;3.20;;;37.00;99.90;;;;;;4998221;28;20026;-82